Time;durP1;ratioP1;P1;durP2;ratioP2;P2;SDS_P1;SDS_P2;PMS_P1;PMS_P2;Temp;Humidity;BMP_temperature;BMP_pressure;BME280_temperature;BME280_humidity;BME280_pressure;Samples;Min_cycle;Max_cycle;Signal;HPM_P1;HPM_P2
2021/07/05 00:01:19;;;;;;;;;;;;;;;21.09;69.91;99583.88;125167;1099;105378;-78
2021/07/05 00:03:48;;;;;;;;;;;;;;;21.07;69.96;99594.58;125192;1099;104198;-78
2021/07/05 00:06:17;;;;;;;;;;;;;;;21.04;69.28;99583.97;125255;1099;104153;-78
2021/07/05 00:08:46;;;;;;;;;;;;;;;21.04;69.49;99586.64;125274;1099;104239;-78
2021/07/05 00:11:15;;;;;;;;;;;;;;;21.03;69.54;99579.54;125678;1099;104198;-78
2021/07/05 00:13:45;;;;;;;;;;;;;;;21.03;69.57;99576.88;125404;1099;104219;-77
2021/07/05 00:16:14;;;;;;;;;;;;;;;21.05;70.34;99571.50;126383;1099;104134;-77
2021/07/05 00:18:43;;;;;;;;;;;;;;;21.12;69.87;99575.80;126383;1099;104916;-77
2021/07/05 00:21:12;;;;;;;;;;;;;;;21.14;69.95;99577.50;125178;1099;104619;-77
2021/07/05 00:23:41;;;;;;;;;;;;;;;21.16;69.79;99578.38;125236;1099;104187;-76
2021/07/05 00:26:10;;;;;;;;;;;;;;;21.13;70.40;99570.44;125256;1099;104248;-77
2021/07/05 00:28:39;;;;;;;;;;;;;;;21.09;69.81;99568.73;125238;1099;104188;-77
2021/07/05 00:31:09;;;;;;;;;;;;;;;21.06;69.56;99566.14;125455;1099;104236;-77
2021/07/05 00:33:38;;;;;;;;;;;;;;;21.06;69.62;99566.14;125380;1099;104245;-79
2021/07/05 00:36:07;;;;;;;;;;;;;;;21.05;70.72;99575.08;126284;1099;104213;-79
2021/07/05 00:38:36;;;;;;;;;;;;;;;21.02;70.74;99575.14;126380;1099;104217;-78
2021/07/05 00:41:05;;;;;;;;;;;;;;;20.99;70.13;99576.08;126098;1099;105579;-76
2021/07/05 00:43:34;;;;;;;;;;;;;;;20.98;69.99;99576.11;125245;1099;104134;-78
2021/07/05 00:46:04;;;;;;;;;;;;;;;20.96;70.83;99573.47;125219;1099;104175;-78
2021/07/05 00:48:33;;;;;;;;;;;;;;;20.94;70.48;99569.97;125214;1099;104233;-77
2021/07/05 00:51:02;;;;;;;;;;;;;;;20.91;70.22;99575.38;125216;1099;104172;-78
2021/07/05 00:53:32;;;;;;;;;;;;;;;20.87;70.52;99578.13;125364;1099;104214;-77
2021/07/05 00:56:01;;;;;;;;;;;;;;;20.84;71.61;99579.06;126375;1099;104159;-77
2021/07/05 00:58:30;;;;;;;;;;;;;;;20.82;71.49;99568.44;126358;1099;104139;-77
2021/07/05 01:01:00;;;;;;;;;;;;;;;20.81;70.79;99572.00;125381;1099;104277;-78
2021/07/05 01:03:29;;;;;;;;;;;;;;;20.79;72.03;99573.83;125253;1099;104178;-78
2021/07/05 01:05:58;;;;;;;;;;;;;;;20.75;71.07;99574.79;125279;1099;104137;-78
2021/07/05 01:08:27;;;;;;;;;;;;;;;20.73;70.80;99581.08;125221;1099;104159;-78
2021/07/05 01:10:56;;;;;;;;;;;;;;;20.69;71.78;99580.25;125301;1099;104225;-77
2021/07/05 01:13:26;;;;;;;;;;;;;;;20.68;71.04;99588.28;125334;1099;104189;-77
2021/07/05 01:15:55;;;;;;;;;;;;;;;20.66;72.25;99588.30;126373;1099;104236;-78
2021/07/05 01:18:24;;;;;;;;;;;;;;;20.65;72.34;99586.57;126383;1099;105208;-77
2021/07/05 01:20:53;;;;;;;;;;;;;;;20.66;71.74;99598.97;126364;1098;104243;-78
2021/07/05 01:23:22;;;;;;;;;;;;;;;20.66;71.74;99606.96;125482;1099;104140;-75
2021/07/05 01:25:52;;;;;;;;;;;;;;;20.66;71.94;99609.63;125241;1099;104223;-77
2021/07/05 01:28:21;;;;;;;;;;;;;;;20.67;72.05;99613.20;125268;1099;104246;-77
2021/07/05 01:30:51;;;;;;;;;;;;;;;20.65;72.71;99602.56;125262;1099;104153;-77
2021/07/05 01:33:20;;;;;;;;;;;;;;;20.68;72.53;99602.50;125919;1099;105605;-78
2021/07/05 01:35:50;;;;;;;;;;;;;;;20.69;72.33;99600.70;126382;1099;104140;-79
2021/07/05 01:38:20;;;;;;;;;;;;;;;20.63;72.65;99604.33;125441;1099;104155;-77
2021/07/05 01:40:53;;;;;;;;;;;;;;;20.65;73.15;99623.89;126333;1099;104675;-77
2021/07/05 01:43:24;;;;;;;;;;;;;;;20.68;72.42;99615.83;125607;1099;104194;-78
2021/07/05 01:45:53;;;;;;;;;;;;;;;20.67;72.54;99611.40;125257;1099;104175;-78
2021/07/05 01:48:24;;;;;;;;;;;;;;;20.66;72.80;99606.96;125207;1099;104197;-77
2021/07/05 01:50:56;;;;;;;;;;;;;;;20.61;73.30;99611.48;125213;1101;104210;-77
2021/07/05 01:53:26;;;;;;;;;;;;;;;20.54;73.15;99612.53;125412;1099;104125;-76
2021/07/05 01:55:55;;;;;;;;;;;;;;;20.49;73.49;99604.63;126349;1099;105079;-76
2021/07/05 01:58:26;;;;;;;;;;;;;;;20.45;72.79;99603.78;125467;1099;104130;-76
2021/07/05 02:00:57;;;;;;;;;;;;;;;20.44;72.93;99606.48;126347;1098;104140;-76
2021/07/05 02:03:26;;;;;;;;;;;;;;;20.40;73.16;99603.00;125725;1099;104137;-77
2021/07/05 02:05:55;;;;;;;;;;;;;;;20.40;74.15;99600.34;125188;1099;104181;-77
2021/07/05 02:08:25;;;;;;;;;;;;;;;20.39;74.18;99600.37;125167;1099;104194;-77
2021/07/05 02:10:55;;;;;;;;;;;;;;;20.37;72.93;99605.72;125197;1098;104203;-75
2021/07/05 02:13:25;;;;;;;;;;;;;;;20.34;74.13;99616.44;125575;1099;104229;-76
2021/07/05 02:15:55;;;;;;;;;;;;;;;20.31;73.89;99607.63;126297;1099;104249;-76
2021/07/05 02:18:25;;;;;;;;;;;;;;;20.31;73.53;99616.49;126342;1099;104176;-75
2021/07/05 02:20:55;;;;;;;;;;;;;;;20.29;73.67;99612.98;125419;1099;104208;-75
2021/07/05 02:23:24;;;;;;;;;;;;;;;20.23;74.56;99623.75;125210;1099;104168;-75
2021/07/05 02:25:54;;;;;;;;;;;;;;;20.17;74.34;99631.84;125220;1099;104213;-77
2021/07/05 02:28:25;;;;;;;;;;;;;;;20.11;74.25;99628.36;125212;1099;104216;-77
2021/07/05 02:30:54;;;;;;;;;;;;;;;20.07;74.49;99625.78;125257;1102;104162;-77
2021/07/05 02:33:24;;;;;;;;;;;;;;;20.01;73.99;99621.46;125403;1099;104136;-76
2021/07/05 02:35:54;;;;;;;;;;;;;;;19.95;73.99;99615.37;126393;1099;104162;-76
2021/07/05 02:38:23;;;;;;;;;;;;;;;19.91;73.84;99617.18;125349;1102;104210;-75
2021/07/05 02:40:54;;;;;;;;;;;;;;;19.86;74.50;99609.27;125282;1102;104262;-75
2021/07/05 02:43:24;;;;;;;;;;;;;;;19.86;75.58;99606.61;125282;1102;104168;-77
2021/07/05 02:45:54;;;;;;;;;;;;;;;19.86;74.88;99605.73;125256;1102;104143;-75
2021/07/05 02:48:24;;;;;;;;;;;;;;;19.84;74.55;99600.44;125302;1102;104240;-75
2021/07/05 02:50:55;;;;;;;;;;;;;;;19.82;75.70;99606.68;125323;1102;104233;-75
2021/07/05 02:53:25;;;;;;;;;;;;;;;19.80;75.00;99606.70;125278;1102;104162;-76
2021/07/05 02:55:54;;;;;;;;;;;;;;;19.78;75.19;99610.32;125307;1101;104149;-76
2021/07/05 02:58:24;;;;;;;;;;;;;;;19.77;74.85;99605.89;125338;1102;104181;-77
2021/07/05 03:00:53;;;;;;;;;;;;;;;19.74;75.47;99604.11;125294;1102;104383;-75
2021/07/05 03:03:24;;;;;;;;;;;;;;;19.73;75.14;99602.38;125346;1102;104306;-75
2021/07/05 03:05:53;;;;;;;;;;;;;;;19.72;75.43;99587.30;125247;1102;104187;-75
2021/07/05 03:08:22;;;;;;;;;;;;;;;19.71;76.21;99590.85;125328;1102;104206;-76
2021/07/05 03:10:52;;;;;;;;;;;;;;;19.70;75.65;99592.64;125226;1102;104201;-77
2021/07/05 03:13:22;;;;;;;;;;;;;;;19.70;75.65;99597.97;125292;1102;104240;-77
2021/07/05 03:15:53;;;;;;;;;;;;;;;19.66;75.84;99590.92;125222;1099;104168;-76
2021/07/05 03:18:22;;;;;;;;;;;;;;;19.63;76.06;99596.30;126363;1099;104144;-76
2021/07/05 03:20:52;;;;;;;;;;;;;;;19.61;75.93;99591.92;125429;1099;104303;-76
2021/07/05 03:23:25;;;;;;;;;;;;;;;19.59;76.11;99589.28;126357;1099;104169;-76
2021/07/05 03:25:54;;;;;;;;;;;;;;;19.58;76.34;99600.82;125365;1099;104166;-77
2021/07/05 03:28:24;;;;;;;;;;;;;;;19.55;76.05;99609.72;125227;1099;104176;-77
2021/07/05 03:30:53;;;;;;;;;;;;;;;19.53;76.19;99600.02;125173;1099;104192;-77
2021/07/05 03:33:23;;;;;;;;;;;;;;;19.51;76.85;99607.13;125229;1099;104306;-78
2021/07/05 03:35:52;;;;;;;;;;;;;;;19.49;76.39;99603.63;125989;1099;104156;-77
2021/07/05 03:38:22;;;;;;;;;;;;;;;19.46;76.85;99595.69;126425;1099;104238;-76
2021/07/05 03:40:51;;;;;;;;;;;;;;;19.44;77.34;99600.16;126385;1099;104136;-77
2021/07/05 03:43:20;;;;;;;;;;;;;;;19.42;77.23;99596.66;126346;1099;104178;-77
2021/07/05 03:45:49;;;;;;;;;;;;;;;19.41;77.69;99593.09;125621;1099;104137;-77
2021/07/05 03:48:18;;;;;;;;;;;;;;;19.40;77.04;99594.02;125236;1100;104157;-79
2021/07/05 03:50:47;;;;;;;;;;;;;;;19.39;77.44;99595.77;125321;1099;104339;-78
2021/07/05 03:53:16;;;;;;;;;;;;;;;19.42;77.20;99601.98;125234;1099;104174;-78
2021/07/05 03:55:46;;;;;;;;;;;;;;;19.40;77.00;99607.31;125655;1099;104136;-78
2021/07/05 03:58:16;;;;;;;;;;;;;;;19.41;77.90;99606.39;126372;1098;104249;-78
2021/07/05 04:00:45;;;;;;;;;;;;;;;19.40;77.52;99592.22;126365;1098;104137;-78
2021/07/05 04:03:15;;;;;;;;;;;;;;;19.43;77.78;99583.33;126331;1099;104203;-78
2021/07/05 04:05:46;;;;;;;;;;;;;;;19.43;77.27;99583.33;125199;1099;105269;-78
2021/07/05 04:08:15;;;;;;;;;;;;;;;19.43;78.06;99593.97;125168;1099;104140;-77
2021/07/05 04:10:44;;;;;;;;;;;;;;;19.41;77.43;99595.75;125331;1099;104144;-75
2021/07/05 04:13:14;;;;;;;;;;;;;;;19.39;78.01;99593.11;125370;1099;104245;-75
2021/07/05 04:15:43;;;;;;;;;;;;;;;19.38;77.75;99594.04;125585;1099;104143;-75
2021/07/05 04:18:12;;;;;;;;;;;;;;;19.37;77.72;99580.77;126328;1099;104136;-75
2021/07/05 04:20:41;;;;;;;;;;;;;;;19.39;78.47;99586.92;126477;1099;104171;-77
2021/07/05 04:23:10;;;;;;;;;;;;;;;19.45;78.16;99597.48;126387;1099;104651;-77
2021/07/05 04:25:40;;;;;;;;;;;;;;;19.51;77.89;99602.70;126331;1099;103226;-76
2021/07/05 04:28:10;;;;;;;;;;;;;;;19.50;77.80;99606.26;125376;1099;102975;-77
2021/07/05 04:30:39;;;;;;;;;;;;;;;19.49;77.82;99614.27;125198;1099;104178;-78
2021/07/05 04:33:08;;;;;;;;;;;;;;;19.47;77.99;99632.04;125199;1099;104312;-78
2021/07/05 04:35:38;;;;;;;;;;;;;;;19.45;78.53;99628.53;125372;1099;104152;-78
2021/07/05 04:38:07;;;;;;;;;;;;;;;19.46;78.57;99631.17;126358;1099;104249;-78
2021/07/05 04:40:38;;;;;;;;;;;;;;;19.45;78.09;99629.41;125377;1099;104191;-78
2021/07/05 04:43:07;;;;;;;;;;;;;;;19.44;78.83;99624.10;126378;1099;104178;-78
2021/07/05 04:45:38;;;;;;;;;;;;;;;19.42;78.71;99620.59;125319;1099;104134;-78
2021/07/05 04:48:08;;;;;;;;;;;;;;;19.39;78.94;99610.87;125195;1099;104274;-77
2021/07/05 04:50:37;;;;;;;;;;;;;;;19.33;79.01;99610.95;125289;1099;104168;-77
2021/07/05 04:53:06;;;;;;;;;;;;;;;19.26;79.37;99617.25;125237;1099;104742;-77
2021/07/05 04:55:36;;;;;;;;;;;;;;;19.22;79.10;99627.06;125202;1099;104191;-77
2021/07/05 04:58:06;;;;;;;;;;;;;;;19.19;78.94;99627.10;126194;1099;104299;-79
2021/07/05 05:00:36;;;;;;;;;;;;;;;19.16;79.58;99635.12;126349;1098;104156;-78
2021/07/05 05:03:06;;;;;;;;;;;;;;;19.15;79.37;99638.67;126240;1099;104168;-77
2021/07/05 05:05:39;;;;;;;;;;;;;;;19.14;79.54;99648.44;126166;1099;104146;-76
2021/07/05 05:08:09;;;;;;;;;;;;;;;19.15;79.54;99660.84;125228;1099;104254;-77
2021/07/05 05:10:38;;;;;;;;;;;;;;;19.16;79.72;99677.66;125210;1099;104204;-76
2021/07/05 05:13:09;;;;;;;;;;;;;;;19.13;80.21;99678.57;125255;1099;104163;-74
2021/07/05 05:15:38;;;;;;;;;;;;;;;19.07;80.63;99643.22;125256;1099;104153;-73
2021/07/05 05:18:07;;;;;;;;;;;;;;;18.98;80.64;99639.78;125972;1099;104174;-74
2021/07/05 05:20:36;;;;;;;;;;;;;;;18.88;80.04;99637.25;125392;1099;104217;-76
2021/07/05 05:23:05;;;;;;;;;;;;;;;18.83;79.54;99603.59;126263;1099;104134;-75
2021/07/05 05:25:35;;;;;;;;;;;;;;;18.79;80.60;99600.98;125284;1102;104236;-75
2021/07/05 05:28:04;;;;;;;;;;;;;;;18.69;80.53;99617.05;125215;1102;104326;-74
2021/07/05 05:30:33;;;;;;;;;;;;;;;18.57;80.89;99622.49;125315;1102;104137;-74
2021/07/05 05:33:02;;;;;;;;;;;;;;;18.53;80.91;99617.23;125213;1102;104165;-75
2021/07/05 05:35:31;;;;;;;;;;;;;;;18.46;81.12;99608.45;125118;1102;104191;-74
2021/07/05 05:38:01;;;;;;;;;;;;;;;18.43;81.32;99604.08;125193;1102;104179;-75
2021/07/05 05:40:30;;;;;;;;;;;;;;;18.43;81.45;99604.08;125275;1101;104223;-73
2021/07/05 05:42:59;;;;;;;;;;;;;;;18.45;81.19;99593.41;125283;1101;104242;-76
2021/07/05 05:45:28;;;;;;;;;;;;;;;18.47;81.88;99599.60;125284;1102;104153;-74
2021/07/05 05:47:58;;;;;;;;;;;;;;;18.48;81.69;99591.61;125144;1102;104182;-74
2021/07/05 05:50:27;;;;;;;;;;;;;;;18.49;81.81;99581.86;125202;1102;104171;-75
2021/07/05 05:52:56;;;;;;;;;;;;;;;18.55;82.59;99586.23;125223;1102;104434;-73
2021/07/05 05:55:25;;;;;;;;;;;;;;;18.59;82.39;99586.19;125318;1102;104300;-75
2021/07/05 05:57:54;;;;;;;;;;;;;;;18.64;82.27;99581.69;125162;1102;104243;-76
2021/07/05 06:00:26;;;;;;;;;;;;;;;18.69;82.04;99593.12;125196;1102;104245;-74
2021/07/05 06:02:57;;;;;;;;;;;;;;;18.74;82.40;99589.55;125380;1102;104175;-74
2021/07/05 06:05:27;;;;;;;;;;;;;;;18.78;81.83;99573.55;125251;1102;104143;-74
2021/07/05 06:07:57;;;;;;;;;;;;;;;18.83;82.64;99582.33;125244;1102;104146;-75
2021/07/05 06:10:26;;;;;;;;;;;;;;;18.87;82.29;99591.20;125317;1102;104331;-76
2021/07/05 06:12:56;;;;;;;;;;;;;;;18.89;82.53;99602.68;125207;1102;104175;-74
2021/07/05 06:15:25;;;;;;;;;;;;;;;18.93;82.02;99598.20;125111;1102;104396;-73
2021/07/05 06:17:55;;;;;;;;;;;;;;;18.99;82.47;99606.09;125129;1102;104198;-73
2021/07/05 06:20:24;;;;;;;;;;;;;;;19.02;82.47;99587.44;125255;1102;104394;-75
2021/07/05 06:22:54;;;;;;;;;;;;;;;19.07;82.65;99576.75;125229;1102;104242;-74
2021/07/05 06:25:24;;;;;;;;;;;;;;;19.13;82.56;99566.03;125148;1102;104396;-74
2021/07/05 06:27:56;;;;;;;;;;;;;;;19.17;82.75;99571.28;125197;1103;104402;-75
2021/07/05 06:30:27;;;;;;;;;;;;;;;19.24;82.16;99571.19;125180;1102;104405;-75
2021/07/05 06:32:56;;;;;;;;;;;;;;;19.30;82.70;99574.63;124973;1102;104338;-75
2021/07/05 06:35:33;;;;;;;;;;;;;;;19.35;82.02;99590.52;125094;1102;104203;-75
2021/07/05 06:38:02;;;;;;;;;;;;;;;19.39;82.62;99594.91;125167;1099;104182;-76
2021/07/05 06:40:31;;;;;;;;;;;;;;;19.44;82.52;99586.86;125259;1099;104275;-76
2021/07/05 06:43:01;;;;;;;;;;;;;;;19.50;82.08;99592.95;126094;1099;104198;-75
2021/07/05 06:45:33;;;;;;;;;;;;;;;19.54;82.72;99597.34;125998;1099;105244;-75
2021/07/05 06:48:02;;;;;;;;;;;;;;;19.57;82.37;99599.05;126178;1099;104223;-77
2021/07/05 06:50:31;;;;;;;;;;;;;;;19.64;82.04;99595.41;125194;1099;106973;-77
2021/07/05 06:53:01;;;;;;;;;;;;;;;19.70;82.30;99584.66;125168;1099;104229;-78
2021/07/05 06:55:33;;;;;;;;;;;;;;;19.76;81.68;99586.36;125106;1099;104240;-77
2021/07/05 06:58:02;;;;;;;;;;;;;;;19.84;82.49;99596.91;125177;1099;104200;-73
2021/07/05 07:00:32;;;;;;;;;;;;;;;19.91;81.65;99590.56;125948;1099;104140;-74
2021/07/05 07:03:04;;;;;;;;;;;;;;;19.99;82.99;99588.66;125981;1099;104207;-75
2021/07/05 07:05:34;;;;;;;;;;;;;;;20.04;82.66;99577.91;126058;1099;104607;-73
2021/07/05 07:08:04;;;;;;;;;;;;;;;20.09;82.83;99579.59;125309;1099;104235;-73
2021/07/05 07:10:34;;;;;;;;;;;;;;;20.13;82.67;99579.53;125033;1099;104171;-75
2021/07/05 07:13:04;;;;;;;;;;;;;;;20.15;82.32;99583.94;125175;1099;104232;-74
2021/07/05 07:15:38;;;;;;;;;;;;;;;20.20;82.98;99583.85;125187;1099;104188;-76
2021/07/05 07:18:21;;;;;;;;;;;;;;;20.27;82.29;99588.14;125230;1099;104210;-76
2021/07/05 07:20:51;;;;;;;;;;;;;;;20.28;82.25;99571.27;126185;1099;104306;-76
2021/07/05 07:23:21;;;;;;;;;;;;;;;20.34;82.12;99568.48;125202;1100;104637;-77
2021/07/05 07:25:52;;;;;;;;;;;;;;;20.37;82.85;99571.09;126162;1099;104249;-76
2021/07/05 07:28:22;;;;;;;;;;;;;;;20.38;82.63;99572.86;125416;1099;104226;-76
2021/07/05 07:30:53;;;;;;;;;;;;;;;20.31;82.44;99568.55;125317;1099;104176;-77
2021/07/05 07:33:25;;;;;;;;;;;;;;;20.28;82.69;99564.14;125146;1099;104124;-77
2021/07/05 07:35:58;;;;;;;;;;;;;;;20.32;82.12;99564.08;125162;1099;104667;-77
2021/07/05 07:38:36;;;;;;;;;;;;;;;20.32;83.29;99564.98;125140;1099;104236;-75
2021/07/05 07:41:09;;;;;;;;;;;;;;;20.30;82.77;99553.45;125790;1099;104248;-78
2021/07/05 07:43:41;;;;;;;;;;;;;;;20.29;83.27;99549.05;125304;1099;104216;-76
2021/07/05 07:46:11;;;;;;;;;;;;;;;20.23;83.19;99555.37;125349;1099;104207;-77
2021/07/05 07:48:46;;;;;;;;;;;;;;;20.17;83.55;99560.80;126206;1099;104143;-76
2021/07/05 07:51:25;;;;;;;;;;;;;;;20.13;83.65;99577.73;125222;1099;104214;-77
2021/07/05 07:53:56;;;;;;;;;;;;;;;20.07;84.98;99588.50;125208;1100;104299;-76
2021/07/05 07:56:30;;;;;;;;;;;;;;;19.92;86.78;99593.20;125138;1099;104262;-76
2021/07/05 07:59:02;;;;;;;;;;;;;;;19.82;87.20;99590.71;125157;1099;104136;-77
2021/07/05 08:01:34;;;;;;;;;;;;;;;19.75;86.74;99589.91;125345;1099;104133;-75
2021/07/05 08:04:05;;;;;;;;;;;;;;;19.70;87.17;99578.47;126298;1099;104230;-75
2021/07/05 08:06:35;;;;;;;;;;;;;;;19.68;87.25;99582.92;126285;1098;104136;-77
2021/07/05 08:09:06;;;;;;;;;;;;;;;19.67;87.50;99582.05;126280;1099;104246;-78
2021/07/05 08:11:37;;;;;;;;;;;;;;;19.64;87.94;99587.42;125328;1099;104271;-77
2021/07/05 08:14:09;;;;;;;;;;;;;;;19.59;88.76;99594.61;125206;1099;104226;-78
2021/07/05 08:16:43;;;;;;;;;;;;;;;19.57;88.84;99575.11;125197;1100;104200;-75
2021/07/05 08:19:15;;;;;;;;;;;;;;;19.62;88.58;99569.70;125146;1099;104150;-75
2021/07/05 08:21:47;;;;;;;;;;;;;;;19.65;88.58;99567.91;125920;1099;104172;-76
2021/07/05 08:24:18;;;;;;;;;;;;;;;19.68;87.97;99566.95;125409;1099;104600;-79
2021/07/05 08:26:48;;;;;;;;;;;;;;;19.71;88.41;99566.90;126338;1099;104688;-77
2021/07/05 08:29:21;;;;;;;;;;;;;;;19.75;88.42;99564.16;126351;1099;104144;-76
2021/07/05 08:31:51;;;;;;;;;;;;;;;19.78;88.30;99557.08;125151;1099;104187;-75
2021/07/05 08:34:20;;;;;;;;;;;;;;;19.81;87.94;99549.05;125219;1099;104204;-75
2021/07/05 08:36:52;;;;;;;;;;;;;;;19.89;87.94;99537.34;125225;1099;104156;-77
2021/07/05 08:39:24;;;;;;;;;;;;;;;20.00;88.17;99539.81;125233;1099;104297;-77
2021/07/05 08:41:53;;;;;;;;;;;;;;;20.13;88.07;99518.28;125132;1099;104323;-77
2021/07/05 08:44:23;;;;;;;;;;;;;;;20.24;86.52;99521.61;125137;1099;104752;-76
2021/07/05 08:46:55;;;;;;;;;;;;;;;20.33;85.63;99521.42;125230;1099;104171;-76
2021/07/05 08:49:25;;;;;;;;;;;;;;;20.45;85.71;99502.53;125181;1100;104184;-75
2021/07/05 08:51:56;;;;;;;;;;;;;;;20.58;85.70;99507.61;125227;1099;104149;-76
2021/07/05 08:54:26;;;;;;;;;;;;;;;20.72;85.61;99488.69;125153;1100;104339;-75
2021/07/05 08:56:57;;;;;;;;;;;;;;;20.83;85.32;99487.55;125167;1099;104261;-75
2021/07/05 08:59:29;;;;;;;;;;;;;;;21.01;85.90;99486.23;125140;1099;104259;-78
2021/07/05 09:01:59;;;;;;;;;;;;;;;21.15;86.04;99483.24;125151;1099;104204;-76
2021/07/05 09:04:30;;;;;;;;;;;;;;;21.32;85.13;99485.51;125214;1099;104191;-76
2021/07/05 09:07:06;;;;;;;;;;;;;;;21.41;84.79;99484.41;125197;1099;104169;-75
2021/07/05 09:09:36;;;;;;;;;;;;;;;21.51;85.16;99493.95;125110;1099;104158;-75
2021/07/05 09:12:07;;;;;;;;;;;;;;;21.59;84.67;99491.09;125136;1099;104261;-75
2021/07/05 09:14:37;;;;;;;;;;;;;;;21.61;84.05;99502.59;125197;1099;104238;-78
2021/07/05 09:17:09;;;;;;;;;;;;;;;21.56;84.51;99508.98;125236;1099;104134;-76
2021/07/05 09:19:40;;;;;;;;;;;;;;;21.52;84.72;99503.73;125176;1099;104217;-77
2021/07/05 09:22:16;;;;;;;;;;;;;;;21.55;84.77;99500.11;125222;1099;104140;-77
2021/07/05 09:24:46;;;;;;;;;;;;;;;21.64;84.67;99496.31;125206;1099;104153;-78
2021/07/05 09:27:20;;;;;;;;;;;;;;;21.74;85.30;99505.85;125142;1102;104322;-76
2021/07/05 09:29:50;;;;;;;;;;;;;;;21.82;84.92;99503.84;125145;1099;104193;-76
2021/07/05 09:32:29;;;;;;;;;;;;;;;21.86;84.42;99508.20;125032;1100;104223;-77
2021/07/05 09:34:59;;;;;;;;;;;;;;;21.85;84.29;99511.78;125243;1099;104184;-75
2021/07/05 09:37:32;;;;;;;;;;;;;;;21.84;84.04;99514.49;125240;1099;104175;-76
2021/07/05 09:40:13;;;;;;;;;;;;;;;21.78;84.04;99518.19;125197;1099;104725;-77
2021/07/05 09:42:50;;;;;;;;;;;;;;;21.72;84.53;99507.66;125664;1099;104220;-77
2021/07/05 09:45:30;;;;;;;;;;;;;;;21.71;84.23;99504.13;125391;1099;104185;-77
2021/07/05 09:48:13;;;;;;;;;;;;;;;21.71;84.50;99513.94;125324;1099;104278;-76
2021/07/05 09:50:43;;;;;;;;;;;;;;;21.69;84.67;99516.65;126351;1099;104255;-77
2021/07/05 09:53:24;;;;;;;;;;;;;;;21.68;84.45;99509.55;125134;1099;104636;-78
2021/07/05 09:55:58;;;;;;;;;;;;;;;21.68;84.64;99498.00;125157;1099;104163;-78
2021/07/05 09:58:32;;;;;;;;;;;;;;;21.63;84.91;99498.12;125155;1099;104133;-78
2021/07/05 10:01:03;;;;;;;;;;;;;;;21.60;84.69;99513.31;125193;1099;104171;-76
2021/07/05 10:03:36;;;;;;;;;;;;;;;21.54;84.63;99496.55;125236;1099;104216;-76
2021/07/05 10:06:19;;;;;;;;;;;;;;;21.53;84.22;99499.25;125990;1099;104246;-76
2021/07/05 10:08:49;;;;;;;;;;;;;;;21.49;84.19;99514.48;125388;1099;104187;-76
2021/07/05 10:11:36;;;;;;;;;;;;;;;21.47;84.89;99516.28;126095;1098;104233;-76
2021/07/05 10:14:12;;;;;;;;;;;;;;;21.47;84.37;99526.06;125022;1099;104629;-77
2021/07/05 10:16:43;;;;;;;;;;;;;;;21.47;84.35;99521.63;125049;1099;104300;-77
2021/07/05 10:19:15;;;;;;;;;;;;;;;21.50;84.32;99518.02;125253;1099;104150;-77
2021/07/05 10:21:45;;;;;;;;;;;;;;;21.59;84.81;99511.58;125207;1099;104163;-77
2021/07/05 10:24:15;;;;;;;;;;;;;;;21.68;84.69;99508.68;125849;1099;104159;-77
2021/07/05 10:26:47;;;;;;;;;;;;;;;21.79;84.18;99503.92;125274;1099;104187;-78
2021/07/05 10:29:17;;;;;;;;;;;;;;;21.89;84.57;99507.22;126199;1099;104181;-77
2021/07/05 10:31:47;;;;;;;;;;;;;;;22.00;83.87;99498.92;126294;1099;104143;-78
2021/07/05 10:34:19;;;;;;;;;;;;;;;22.08;84.05;99502.28;125157;1102;104201;-76
2021/07/05 10:39:41;;;;;;;27.80;17.40;;;;;;;22.27;84.30;99507.98;125180;1102;104150;-77
2021/07/05 10:42:29;;;;;;;23.70;16.17;;;;;;;22.40;83.61;99497.84;125176;1102;104152;-76
2021/07/05 10:45:01;;;;;;;24.27;14.93;;;;;;;22.56;84.22;99493.82;125030;1102;104277;-76
2021/07/05 10:47:48;;;;;;;25.17;15.70;;;;;;;22.66;84.12;99490.84;124929;1102;104223;-76
2021/07/05 10:50:41;;;;;;;22.93;13.87;;;;;;;22.72;83.76;99496.00;125040;1102;104283;-77
2021/07/05 10:53:13;;;;;;;22.77;14.07;;;;;;;22.76;83.73;99503.89;125125;1102;104178;-77
2021/07/05 10:55:48;;;;;;;22.97;13.60;;;;;;;22.82;83.41;99489.47;125167;1102;104169;-76
2021/07/05 10:58:26;;;;;;;22.47;13.63;;;;;;;22.93;83.58;99492.67;125228;1102;104140;-78
2021/07/05 11:01:05;;;;;;;22.77;13.43;;;;;;;23.06;83.36;99486.94;125284;1102;120193;-77
2021/07/05 11:03:47;;;;;;;22.43;13.80;;;;;;;23.24;83.59;99489.06;125000;1102;104300;-76
2021/07/05 11:06:44;;;;;;;22.53;14.03;;;;;;;23.42;83.39;99487.59;124948;1102;104284;-78
2021/07/05 11:09:21;;;;;;;22.37;13.50;;;;;;;23.63;83.07;99487.80;124965;1105;104293;-75
2021/07/05 11:11:55;;;;;;;22.07;13.60;;;;;;;23.73;83.07;99488.34;124987;1105;104163;-76
2021/07/05 11:14:30;;;;;;;21.67;13.47;;;;;;;23.81;82.91;99480.91;124979;1105;104234;-77
2021/07/05 11:17:07;;;;;;;24.07;14.33;;;;;;;23.92;83.17;99478.78;124991;1102;104288;-79
2021/07/05 11:19:51;;;;;;;20.80;13.30;;;;;;;23.98;82.81;99477.67;124949;1105;104226;-78
2021/07/05 11:22:29;;;;;;;22.05;13.13;;;;;;;24.01;82.69;99486.49;125245;1102;104315;-75
2021/07/05 11:25:09;;;;;;;25.30;13.50;;;;;;;24.03;82.89;99475.72;125337;1102;104216;-75
2021/07/05 11:27:49;;;;;;;19.63;12.43;;;;;;;24.05;82.93;99464.00;125258;1102;104287;-77
2021/07/05 11:30:35;;;;;;;22.57;13.53;;;;;;;24.04;82.75;99478.34;125135;1102;104153;-78
2021/07/05 11:33:25;;;;;;;20.40;12.03;;;;;;;24.05;82.78;99466.67;125185;1102;104247;-76
2021/07/05 11:35:59;;;;;;;19.77;12.70;;;;;;;24.04;82.66;99472.98;125194;1102;104175;-76
2021/07/05 11:38:34;;;;;;;20.33;12.13;;;;;;;24.00;82.22;99460.62;125229;1102;104331;-75
2021/07/05 11:41:24;;;;;;;18.73;11.97;;;;;;;24.00;82.65;99449.04;125192;1102;104149;-78
2021/07/05 11:43:59;;;;;;;21.40;12.50;;;;;;;24.01;82.49;99456.12;125148;1102;104255;-77
2021/07/05 11:46:53;;;;;;;21.20;12.50;;;;;;;23.99;82.56;99453.50;125190;1101;104208;-77
2021/07/05 11:49:28;;;;;;;22.37;12.40;;;;;;;23.94;82.40;99447.44;125115;1102;104262;-75
2021/07/05 11:52:00;;;;;;;20.83;12.40;;;;;;;23.86;82.24;99450.39;125119;1102;104223;-75
2021/07/05 11:54:35;;;;;;;20.92;11.75;;;;;;;23.79;82.25;99440.78;125199;1102;104253;-75
2021/07/05 11:57:08;;;;;;;22.43;12.17;;;;;;;23.70;82.49;99451.85;125149;1102;104444;-74
2021/07/05 11:59:41;;;;;;;21.50;11.13;;;;;;;23.60;82.37;99466.47;125217;1102;104162;-75
2021/07/05 12:02:16;;;;;;;20.10;12.23;;;;;;;23.53;82.67;99459.56;125232;1102;108831;-76
2021/07/05 12:04:49;;;;;;;19.07;11.03;;;;;;;23.43;82.85;99469.72;125137;1102;104316;-77
2021/07/05 12:07:22;;;;;;;22.85;11.28;;;;;;;23.32;82.63;99457.56;125133;1102;104165;-77
2021/07/05 12:09:54;;;;;;;21.97;10.97;;;;;;;23.24;82.97;99453.41;125159;1102;104245;-76
2021/07/05 12:12:29;;;;;;;21.50;11.60;;;;;;;23.12;83.12;99442.19;125225;1102;104152;-76
2021/07/05 12:15:04;;;;;;;20.03;10.77;;;;;;;23.00;82.86;99429.18;124936;1103;104317;-75
2021/07/05 12:17:37;;;;;;;18.80;11.40;;;;;;;22.84;82.73;99434.12;125253;1102;104227;-75
2021/07/05 12:20:12;;;;;;;20.62;11.22;;;;;;;22.70;82.89;99442.58;124974;1102;104573;-77
2021/07/05 12:22:46;;;;;;;19.97;11.40;;;;;;;22.58;82.39;99437.64;124894;1102;108016;-76
2021/07/05 12:25:16;;;;;;;20.97;11.85;;;;;;;22.50;82.55;99437.87;125147;1102;104300;-76
2021/07/05 12:27:51;;;;;;;22.47;12.50;;;;;;;22.42;83.08;99442.55;124950;1102;104627;-77
2021/07/05 12:30:27;;;;;;;22.83;12.60;;;;;;;22.37;82.63;99431.13;125182;1102;104323;-77
2021/07/05 12:33:04;;;;;;;22.57;11.80;;;;;;;22.32;82.25;99422.37;125244;1102;120368;-77
2021/07/05 12:35:37;;;;;;;21.50;12.35;;;;;;;22.28;83.19;99423.34;125071;1101;104171;-76
2021/07/05 12:38:21;;;;;;;23.83;11.87;;;;;;;22.25;82.97;99434.98;125193;1102;104165;-78